• Join FlightAware (Why Join?)
  • Login
  • US Flag 
03:35AM EDT


 

Airport Tracker/Info


-or-


 

Live Flight TrackerFlight Track Log ✈ CPZ5841 ✈ 26-Apr-2013 ✈ KMSP - KBIS

Flight Track Log - Related Links

Times and Time Zones

All times are in EDT time to prevent confusion due to time zone crossing. See the CPZ5841 flight status page for this flight to view local times or setup timezone preferences in your user account.

Time Position Orientation Groundspeed Altitude Reporting Facility
EDT Latitude Longitude Course Direction KTS MPH feet Rate Location/Type
12:11AM 44.9167 -93.2667 290° West 179 206 2,800  Level Minneapolis TRACON
12:11AM 44.9231 -93.2894 292° West 198 228 3,300 2,640 Climbing Minneapolis Center
12:12AM 44.9611 -93.3722 303° West 256 295 6,200 3,180 Climbing Minneapolis Center
12:13AM 44.9864 -93.4719 290° West 273 314 9,800 2,520 Climbing Minneapolis Center
12:14AM 45.0613 -93.8004 295° West  Level FlightAware Approximate
12:14AM 45.0089 -93.5592 290° West 299 344 11,400  Level Minneapolis Center
12:15AM 45.0942 -93.9208 286° West  Level FlightAware Approximate
12:15AM 45.0475 -93.7114 290° West 344 396 14,600  Level Minneapolis Center
12:16AM 45.1251 -94.0503 290° West  Level FlightAware Approximate
12:16AM 45.0808 -93.8447 290° West 363 418 17,000  Level Minneapolis Center
12:17AM 45.1144 -93.9800 289° West 365 420 19,600 2,340 Climbing Minneapolis Center
12:18AM 45.1475 -94.1197 289° West 373 429 21,800 1,980 Climbing Minneapolis Center
12:19AM 45.1828 -94.2644 289° West 387 445 23,700 1,740 Climbing Minneapolis Center
12:20AM 45.2183 -94.4131 289° West 399 459 25,400 1,560 Climbing Minneapolis Center
12:21AM 45.2542 -94.5653 289° West 406 467 26,900 1,440 Climbing Minneapolis Center
12:22AM 45.2953 -94.7375 289° West 419 482 28,400 1,380 Climbing Minneapolis Center
12:23AM 45.3331 -94.8961 289° West 424 488 29,800 1,380 Climbing Minneapolis Center
12:24AM 45.3692 -95.0553 288° West 426 490 31,300 1,080 Climbing Minneapolis Center
12:25AM 45.4056 -95.2136 288° West 423 487 32,000 300 Climbing Minneapolis Center
12:26AM 45.4442 -95.3786 288° West 434 499 32,000  Level Minneapolis Center
12:27AM 45.4825 -95.5467 288° West 444 511 32,000  Level Minneapolis Center
12:28AM 45.5203 -95.7133 288° West 445 512 32,000  Level Minneapolis Center
12:29AM 45.5592 -95.8825 288° West 448 516 32,000  Level Minneapolis Center
12:30AM 45.5953 -96.0494 287° West 443 510 32,000  Level Minneapolis Center
12:31AM 45.6406 -96.2494 288° West 442 509 32,000  Level Minneapolis Center
12:32AM 45.6772 -96.4181 287° West 444 511 32,000  Level Minneapolis Center
12:33AM 45.7133 -96.5850 287° West 442 509 32,000  Level Minneapolis Center
12:34AM 45.7500 -96.7519 288° West 442 509 32,000  Level Minneapolis Center
12:35AM 45.7856 -96.9186 287° West 440 506 32,000  Level Minneapolis Center
12:36AM 45.8197 -97.0867 286° West 441 507 32,000  Level Minneapolis Center
12:37AM 45.8558 -97.2536 287° West 441 507 32,000  Level Minneapolis Center
12:38AM 45.8922 -97.4211 287° West 446 513 32,000  Level Minneapolis Center
12:39AM 45.9283 -97.5897 287° West 444 511 32,000  Level Minneapolis Center
12:40AM 45.9750 -97.7514 293° West 439 505 32,000  Level Minneapolis Center
12:41AM 46.0208 -97.9128 292° West 437 503 32,000  Level Minneapolis Center
12:42AM 46.0656 -98.0753 292° West 437 503 32,000 -420 Level Minneapolis Center
12:43AM 46.1100 -98.2339 292° West 432 497 31,200 -1,200 Descending Minneapolis Center
12:44AM 46.1544 -98.3939 292° West 430 495 29,600 -1,740 Descending Minneapolis Center
12:45AM 46.1986 -98.5525 292° West 428 493 27,700 -1,920 Descending Minneapolis Center
12:46AM 46.2411 -98.7100 291° West 424 488 25,800 -1,740 Descending Minneapolis Center
12:47AM 46.2750 -98.8325 292° West 419 482 24,300 -1,920 Descending Minneapolis Center
12:48AM 46.3239 -99.0139 291° West 409 471 22,000 -2,100 Descending Minneapolis Center
12:49AM 46.3625 -99.1581 291° West 397 457 20,100 -1,920 Descending Minneapolis Center
12:50AM 46.4011 -99.3014 291° West 388 447 18,200 -1,800 Descending Minneapolis Center
12:51AM 46.4419 -99.4578 291° West 374 430 16,600 -1,620 Descending Minneapolis Center
12:52AM 46.4747 -99.5939 289° West 365 420 15,000 -1,620 Descending Minneapolis Center
12:53AM 46.4947 -99.7250 283° West 345 397 13,400 -1,560 Descending Minneapolis Center
12:54AM 46.5131 -99.8439 283° West 318 366 11,900 -1,440 Descending Minneapolis Center
12:55AM 46.5289 -99.9475 283° West 284 327 10,500 -1,440 Descending Minneapolis Center
12:56AM 46.5444 -100.0525 282° West 272 313 9,100 -1,320 Descending Minneapolis Center
12:57AM 46.5606 -100.1553 283° West 265 305 7,900 -1,080 Descending Minneapolis Center
12:58AM 46.5747 -100.2478 283° West 248 285 7,000 -900 Descending Minneapolis Center
12:59AM 46.5867 -100.3303 282° West 223 257 6,100 -900 Descending Minneapolis Center
01:00AM 46.5992 -100.4136 282° West 214 246 5,200 -900 Descending Minneapolis Center
01:01AM 46.6117 -100.4964 282° West 211 243 4,300 -780 Descending Minneapolis Center
01:02AM 46.6378 -100.5664 299° West 209 241 3,700 -300 Descending Minneapolis Center
01:03AM 46.6722 -100.6119 318° Northwest 196 226 3,700  Level Minneapolis Center
01:04AM 46.7183 -100.6717 318° Northwest 193 222 3,700  Level Minneapolis Center